Time;durP1;ratioP1;P1;durP2;ratioP2;P2;SDS_P1;SDS_P2;PMS_P1;PMS_P2;Temp;Humidity;BMP_temperature;BMP_pressure;BME280_temperature;BME280_humidity;BME280_pressure;Samples;Min_cycle;Max_cycle;Signal;HPM_P1;HPM_P2
2023/02/10 00:00:10;;;;;;;;;;;;;;;;;;5048427;28;19935;-67
2023/02/10 00:02:36;;;;;;;;;;;;;;;;;;5047878;28;19921;-67
2023/02/10 00:05:02;;;;;;;;;;;;;;;;;;5049465;28;19986;-68
2023/02/10 00:07:28;;;;;;;;;;;;;;;;;;5048517;28;20398;-67
2023/02/10 00:09:54;;;;;;;;;;;;;;;;;;5045786;28;19924;-67
2023/02/10 00:12:20;;;;;;;;;;;;;;;;;;5044666;28;19921;-68
2023/02/10 00:14:45;;;;;;;;;;;;;;;;;;5048572;28;20338;-67
2023/02/10 00:17:12;;;;;;;;;;;;;;;;;;5048739;28;19928;-68
2023/02/10 00:19:38;;;;;;;;;;;;;;;;;;5049205;28;20359;-68
2023/02/10 00:22:04;;;;;;;;;;;;;;;;;;5050424;28;19929;-66
2023/02/10 00:24:30;;;;;;;;;;;;;;;;;;5046693;28;19921;-68
2023/02/10 00:26:56;;;;;;;;;;;;;;;;;;5037286;28;20003;-68
2023/02/10 00:29:22;;;;;;;;;;;;;;;;;;5030731;28;20444;-67
2023/02/10 00:31:48;;;;;;;;;;;;;;;;;;5046976;28;19920;-68
2023/02/10 00:34:14;;;;;;;;;;;;;;;;;;5048784;28;19944;-67
2023/02/10 00:36:40;;;;;;;;;;;;;;;;;;5049325;28;20282;-68
2023/02/10 00:39:06;;;;;;;;;;;;;;;;;;5051860;28;20332;-68
2023/02/10 00:41:32;;;;;;;;;;;;;;;;;;5043701;28;19967;-69
2023/02/10 00:43:57;;;;;;;;;;;;;;;;;;5045174;28;20007;-69
2023/02/10 00:46:23;;;;;;;;;;;;;;;;;;5052699;28;20277;-68
2023/02/10 00:48:49;;;;;;;;;;;;;;;;;;5052160;28;19929;-69
2023/02/10 00:51:15;;;;;;;;;;;;;;;;;;5050218;28;19925;-69
2023/02/10 00:53:41;;;;;;;;;;;;;;;;;;5053626;28;19927;-69
2023/02/10 00:56:07;;;;;;;;;;;;;;;;;;5044712;28;19925;-68
2023/02/10 00:58:33;;;;;;;;;;;;;;;;;;5051230;28;20442;-67
2023/02/10 01:00:59;;;;;;;;;;;;;;;;;;5051665;28;19928;-66
2023/02/10 01:03:25;;;;;;;;;;;;;;;;;;5041725;28;19944;-68
2023/02/10 01:05:50;;;;;;;;;;;;;;;;;;5043042;28;19929;-67
2023/02/10 01:08:16;;;;;;;;;;;;;;;;;;5053091;28;19920;-68
2023/02/10 01:10:42;;;;;;;;;;;;;;;;;;5052462;28;19928;-69
2023/02/10 01:13:08;;;;;;;;;;;;;;;;;;5049808;28;20018;-68
2023/02/10 01:15:34;;;;;;;;;;;;;;;;;;5050743;28;19970;-68
2023/02/10 01:18:00;;;;;;;;;;;;;;;;;;5052458;28;19921;-68
2023/02/10 01:20:26;;;;;;;;;;;;;;;;;;5045369;28;19978;-67
2023/02/10 01:22:52;;;;;;;;;;;;;;;;;;5051304;28;19960;-67
2023/02/10 01:25:18;;;;;;;;;;;;;;;;;;5051867;28;19925;-67
2023/02/10 01:27:43;;;;;;;;;;;;;;;;;;5046143;28;20008;-67
2023/02/10 01:30:09;;;;;;;;;;;;;;;;;;5047823;28;19921;-68
2023/02/10 01:32:35;;;;;;;;;;;;;;;;;;5051158;28;19927;-67
2023/02/10 01:35:02;;;;;;;;;;;;;;;;;;5033739;28;20504;-67
2023/02/10 01:37:27;;;;;;;;;;;;;;;;;;5046975;28;19927;-67
2023/02/10 01:39:53;;;;;;;;;;;;;;;;;;5052949;28;19925;-67
2023/02/10 01:42:19;;;;;;;;;;;;;;;;;;5050989;28;20390;-68
2023/02/10 01:44:45;;;;;;;;;;;;;;;;;;5046918;28;20036;-68
2023/02/10 01:47:11;;;;;;;;;;;;;;;;;;5051951;28;20325;-67
2023/02/10 01:49:39;;;;;;;;;;;;;;;;;;5051113;28;19920;-68
2023/02/10 01:52:05;;;;;;;;;;;;;;;;;;5047610;28;19971;-67
2023/02/10 01:54:31;;;;;;;;;;;;;;;;;;5034417;28;19924;-67
2023/02/10 01:56:57;;;;;;;;;;;;;;;;;;5024794;28;19947;-67
2023/02/10 01:59:23;;;;;;;;;;;;;;;;;;5043386;28;19929;-68
2023/02/10 02:01:49;;;;;;;;;;;;;;;;;;5050735;28;20003;-68
2023/02/10 02:04:15;;;;;;;;;;;;;;;;;;5040470;28;19925;-67
2023/02/10 02:06:42;;;;;;;;;;;;;;;;;;5051563;28;19982;-67
2023/02/10 02:09:08;;;;;;;;;;;;;;;;;;5050505;28;20571;-68
2023/02/10 02:11:34;;;;;;;;;;;;;;;;;;5051604;28;19928;-67
2023/02/10 02:14:00;;;;;;;;;;;;;;;;;;5049500;28;19928;-67
2023/02/10 02:16:26;;;;;;;;;;;;;;;;;;5049328;28;20008;-67
2023/02/10 02:18:52;;;;;;;;;;;;;;;;;;5048446;28;19979;-67
2023/02/10 02:21:17;;;;;;;;;;;;;;;;;;5065977;28;20005;-67
2023/02/10 02:23:43;;;;;;;;;;;;;;;;;;5049450;28;19943;-67
2023/02/10 02:26:09;;;;;;;;;;;;;;;;;;5041996;28;19921;-67
2023/02/10 02:28:35;;;;;;;;;;;;;;;;;;5051134;28;20059;-68
2023/02/10 02:31:02;;;;;;;;;;;;;;;;;;5040358;28;20287;-67
2023/02/10 02:33:28;;;;;;;;;;;;;;;;;;5049072;28;19929;-68
2023/02/10 02:35:54;;;;;;;;;;;;;;;;;;5042984;28;20576;-67
2023/02/10 02:38:20;;;;;;;;;;;;;;;;;;5044524;28;19925;-67
2023/02/10 02:40:46;;;;;;;;;;;;;;;;;;5037996;28;19948;-68
2023/02/10 02:43:11;;;;;;;;;;;;;;;;;;5048562;28;19991;-68
2023/02/10 02:45:37;;;;;;;;;;;;;;;;;;5050709;28;19920;-68
2023/02/10 02:48:03;;;;;;;;;;;;;;;;;;5049485;28;19932;-67
2023/02/10 02:50:29;;;;;;;;;;;;;;;;;;5046231;28;19925;-68
2023/02/10 02:52:55;;;;;;;;;;;;;;;;;;5048682;28;19921;-68
2023/02/10 02:55:22;;;;;;;;;;;;;;;;;;5048497;28;20012;-68
2023/02/10 02:57:48;;;;;;;;;;;;;;;;;;5050243;28;20399;-67
2023/02/10 03:00:14;;;;;;;;;;;;;;;;;;5047724;28;19933;-68
2023/02/10 03:02:41;;;;;;;;;;;;;;;;;;5047572;28;20016;-68
2023/02/10 03:05:07;;;;;;;;;;;;;;;;;;5034190;28;20550;-68
2023/02/10 03:07:32;;;;;;;;;;;;;;;;;;5048641;28;20023;-68
2023/02/10 03:09:58;;;;;;;;;;;;;;;;;;5051126;28;19944;-68
2023/02/10 03:12:24;;;;;;;;;;;;;;;;;;5048749;28;19925;-68
2023/02/10 03:14:50;;;;;;;;;;;;;;;;;;5049531;28;19978;-68
2023/02/10 03:17:16;;;;;;;;;;;;;;;;;;5047452;28;20270;-67
2023/02/10 03:19:42;;;;;;;;;;;;;;;;;;5049681;28;19964;-68
2023/02/10 03:22:08;;;;;;;;;;;;;;;;;;5050428;28;19925;-68
2023/02/10 03:24:34;;;;;;;;;;;;;;;;;;5047691;28;19967;-68
2023/02/10 03:27:00;;;;;;;;;;;;;;;;;;5034446;28;19921;-68
2023/02/10 03:29:25;;;;;;;;;;;;;;;;;;5051381;28;20003;-68
2023/02/10 03:31:51;;;;;;;;;;;;;;;;;;5045011;28;19947;-68
2023/02/10 03:34:17;;;;;;;;;;;;;;;;;;5050251;28;19921;-68
2023/02/10 03:36:43;;;;;;;;;;;;;;;;;;5051795;28;20278;-68
2023/02/10 03:39:09;;;;;;;;;;;;;;;;;;5049429;28;20726;-67
2023/02/10 03:41:35;;;;;;;;;;;;;;;;;;5050972;28;19925;-67
2023/02/10 03:44:01;;;;;;;;;;;;;;;;;;5050721;28;20444;-68
2023/02/10 03:46:27;;;;;;;;;;;;;;;;;;5065790;28;19921;-67
2023/02/10 03:48:53;;;;;;;;;;;;;;;;;;5047260;28;19948;-67
2023/02/10 03:51:18;;;;;;;;;;;;;;;;;;5050497;28;20352;-68
2023/02/10 03:53:44;;;;;;;;;;;;;;;;;;5053759;28;20444;-67
2023/02/10 03:56:10;;;;;;;;;;;;;;;;;;5046682;28;19967;-67
2023/02/10 03:58:36;;;;;;;;;;;;;;;;;;5049890;28;19970;-67
2023/02/10 04:01:02;;;;;;;;;;;;;;;;;;5041971;28;20341;-69
2023/02/10 04:03:28;;;;;;;;;;;;;;;;;;5051573;28;19924;-68
2023/02/10 04:05:54;;;;;;;;;;;;;;;;;;5033463;28;19921;-68
2023/02/10 04:08:20;;;;;;;;;;;;;;;;;;5050220;28;19960;-67
2023/02/10 04:10:46;;;;;;;;;;;;;;;;;;5051677;28;19974;-67
2023/02/10 04:13:12;;;;;;;;;;;;;;;;;;5044908;28;19925;-68
2023/02/10 04:15:38;;;;;;;;;;;;;;;;;;5053130;28;19982;-66
2023/02/10 04:18:04;;;;;;;;;;;;;;;;;;5052929;28;19952;-66
2023/02/10 04:20:31;;;;;;;;;;;;;;;;;;5053126;28;19931;-68
2023/02/10 04:22:57;;;;;;;;;;;;;;;;;;5054298;28;19921;-67
2023/02/10 04:25:23;;;;;;;;;;;;;;;;;;5050044;28;20279;-67
2023/02/10 04:27:49;;;;;;;;;;;;;;;;;;5047386;28;19924;-68
2023/02/10 04:30:14;;;;;;;;;;;;;;;;;;5050514;28;19921;-69
2023/02/10 04:32:40;;;;;;;;;;;;;;;;;;5042578;28;20019;-68
2023/02/10 04:35:06;;;;;;;;;;;;;;;;;;5039582;28;20286;-68
2023/02/10 04:37:32;;;;;;;;;;;;;;;;;;5053604;28;19929;-68
2023/02/10 04:39:58;;;;;;;;;;;;;;;;;;5043467;28;20015;-68
2023/02/10 04:42:29;;;;;;;;;;;;;;;;;;5045693;28;19921;-68
2023/02/10 04:44:55;;;;;;;;;;;;;;;;;;5046849;28;19928;-68
2023/02/10 04:47:21;;;;;;;;;;;;;;;;;;5051353;28;19929;-68
2023/02/10 04:49:47;;;;;;;;;;;;;;;;;;5052678;28;20389;-68
2023/02/10 04:52:13;;;;;;;;;;;;;;;;;;5049845;28;20413;-69
2023/02/10 04:54:39;;;;;;;;;;;;;;;;;;5049334;28;19921;-69
2023/02/10 04:57:04;;;;;;;;;;;;;;;;;;5041633;28;19925;-68
2023/02/10 04:59:30;;;;;;;;;;;;;;;;;;5051454;28;19979;-68
2023/02/10 05:01:56;;;;;;;;;;;;;;;;;;5047002;28;19974;-68
2023/02/10 05:04:22;;;;;;;;;;;;;;;;;;5053467;28;19924;-68
2023/02/10 05:06:48;;;;;;;;;;;;;;;;;;5053644;28;19925;-69
2023/02/10 05:09:14;;;;;;;;;;;;;;;;;;5048929;28;20333;-69
2023/02/10 05:11:41;;;;;;;;;;;;;;;;;;5051802;28;19925;-69
2023/02/10 05:14:07;;;;;;;;;;;;;;;;;;5058586;28;20443;-69
2023/02/10 05:16:33;;;;;;;;;;;;;;;;;;5051891;28;19978;-69
2023/02/10 05:18:59;;;;;;;;;;;;;;;;;;5051957;28;19931;-68
2023/02/10 05:21:24;;;;;;;;;;;;;;;;;;5047734;28;19924;-68
2023/02/10 05:23:50;;;;;;;;;;;;;;;;;;5050128;28;19924;-68
2023/02/10 05:26:16;;;;;;;;;;;;;;;;;;5044903;28;19921;-68
2023/02/10 05:28:42;;;;;;;;;;;;;;;;;;5040637;28;19970;-69
2023/02/10 05:31:08;;;;;;;;;;;;;;;;;;5052120;28;19956;-68
2023/02/10 05:33:34;;;;;;;;;;;;;;;;;;5068106;28;19924;-68
2023/02/10 05:36:00;;;;;;;;;;;;;;;;;;5048564;28;19925;-68
2023/02/10 05:38:27;;;;;;;;;;;;;;;;;;5052206;28;20028;-69
2023/02/10 05:40:53;;;;;;;;;;;;;;;;;;5052758;28;20466;-69
2023/02/10 05:43:19;;;;;;;;;;;;;;;;;;5049894;28;20011;-68
2023/02/10 05:45:45;;;;;;;;;;;;;;;;;;5052361;28;20007;-68
2023/02/10 05:48:10;;;;;;;;;;;;;;;;;;5052463;28;20579;-68
2023/02/10 05:50:39;;;;;;;;;;;;;;;;;;5050889;28;19929;-68
2023/02/10 05:53:05;;;;;;;;;;;;;;;;;;5051860;28;19967;-68
2023/02/10 05:55:31;;;;;;;;;;;;;;;;;;5044521;28;19925;-68
2023/02/10 05:57:57;;;;;;;;;;;;;;;;;;5040081;28;19920;-68
2023/02/10 06:00:23;;;;;;;;;;;;;;;;;;5044284;28;19937;-68
2023/02/10 06:02:49;;;;;;;;;;;;;;;;;;5051654;28;19925;-68
2023/02/10 06:05:15;;;;;;;;;;;;;;;;;;5040381;28;19920;-68
2023/02/10 06:07:41;;;;;;;;;;;;;;;;;;5047615;28;19921;-68
2023/02/10 06:10:07;;;;;;;;;;;;;;;;;;5047978;28;19931;-68
2023/02/10 06:12:32;;;;;;;;;;;;;;;;;;5043645;28;19924;-68
2023/02/10 06:14:58;;;;;;;;;;;;;;;;;;5052047;28;19936;-68
2023/02/10 06:17:25;;;;;;;;;;;;;;;;;;5051351;28;19928;-68
2023/02/10 06:19:51;;;;;;;;;;;;;;;;;;5044516;28;19925;-68
2023/02/10 06:22:17;;;;;;;;;;;;;;;;;;5050359;28;19927;-68
2023/02/10 06:24:43;;;;;;;;;;;;;;;;;;5048145;28;19948;-69
2023/02/10 06:27:09;;;;;;;;;;;;;;;;;;5039882;28;19994;-69
2023/02/10 06:29:35;;;;;;;;;;;;;;;;;;5050801;28;19925;-67
2023/02/10 06:32:01;;;;;;;;;;;;;;;;;;5046238;28;19928;-67
2023/02/10 06:34:27;;;;;;;;;;;;;;;;;;5048142;28;20457;-67
2023/02/10 06:36:53;;;;;;;;;;;;;;;;;;5050845;28;19935;-68
2023/02/10 06:39:18;;;;;;;;;;;;;;;;;;5046208;28;19925;-67
2023/02/10 06:41:44;;;;;;;;;;;;;;;;;;5051822;28;19927;-69
2023/02/10 06:44:10;;;;;;;;;;;;;;;;;;5051638;28;19921;-68
2023/02/10 06:46:36;;;;;;;;;;;;;;;;;;5051233;28;19925;-68
2023/02/10 06:49:02;;;;;;;;;;;;;;;;;;5051500;28;20408;-68
2023/02/10 06:51:28;;;;;;;;;;;;;;;;;;5048662;28;19932;-69
2023/02/10 06:53:54;;;;;;;;;;;;;;;;;;5047340;28;19944;-69
2023/02/10 06:56:20;;;;;;;;;;;;;;;;;;5038935;28;19929;-68
2023/02/10 06:58:45;;;;;;;;;;;;;;;;;;5051411;28;19925;-68
2023/02/10 07:01:11;;;;;;;;;;;;;;;;;;5045682;28;19979;-69
2023/02/10 07:03:37;;;;;;;;;;;;;;;;;;5055085;22;19924;-67
2023/02/10 07:06:03;;;;;;;;;;;;;;;;;;5033179;28;20413;-67
2023/02/10 07:08:29;;;;;;;;;;;;;;;;;;5051837;28;19975;-67
2023/02/10 07:10:55;;;;;;;;;;;;;;;;;;5049236;28;19924;-67
2023/02/10 07:13:21;;;;;;;;;;;;;;;;;;5051221;28;19921;-67
2023/02/10 07:15:47;;;;;;;;;;;;;;;;;;5047039;28;20346;-67
2023/02/10 07:18:13;;;;;;;;;;;;;;;;;;5049556;28;19920;-67
2023/02/10 07:20:39;;;;;;;;;;;;;;;;;;5052257;28;20011;-67
2023/02/10 07:23:05;;;;;;;;;;;;;;;;;;5051276;28;20008;-67
2023/02/10 07:25:31;;;;;;;;;;;;;;;;;;5035045;28;19924;-67
2023/02/10 07:27:57;;;;;;;;;;;;;;;;;;5052395;28;20366;-66
2023/02/10 07:30:23;;;;;;;;;;;;;;;;;;5052815;28;19921;-67
2023/02/10 07:32:49;;;;;;;;;;;;;;;;;;5032544;28;19928;-67
2023/02/10 07:35:14;;;;;;;;;;;;;;;;;;5033995;28;20333;-67
2023/02/10 07:37:40;;;;;;;;;;;;;;;;;;5049776;28;19924;-67
2023/02/10 07:40:06;;;;;;;;;;;;;;;;;;5041629;28;19979;-67
2023/02/10 07:42:34;;;;;;;;;;;;;;;;;;5051506;28;20414;-67
2023/02/10 07:45:00;;;;;;;;;;;;;;;;;;5051833;28;19943;-67
2023/02/10 07:47:26;;;;;;;;;;;;;;;;;;5049107;28;19944;-67
2023/02/10 07:49:53;;;;;;;;;;;;;;;;;;5037421;28;19920;-67
2023/02/10 07:52:19;;;;;;;;;;;;;;;;;;5055685;28;19925;-67
2023/02/10 07:54:45;;;;;;;;;;;;;;;;;;5054904;28;19944;-67
2023/02/10 07:57:11;;;;;;;;;;;;;;;;;;5044173;28;19920;-67
2023/02/10 07:59:37;;;;;;;;;;;;;;;;;;5035674;28;20016;-67
2023/02/10 08:02:03;;;;;;;;;;;;;;;;;;5051191;28;20340;-67
2023/02/10 08:04:29;;;;;;;;;;;;;;;;;;5051434;28;20039;-67
2023/02/10 08:06:55;;;;;;;;;;;;;;;;;;5048383;28;19928;-67
2023/02/10 08:09:21;;;;;;;;;;;;;;;;;;5034488;28;19921;-67
2023/02/10 08:11:47;;;;;;;;;;;;;;;;;;5054321;28;20383;-67
2023/02/10 08:14:13;;;;;;;;;;;;;;;;;;5044260;28;19954;-67
2023/02/10 08:16:39;;;;;;;;;;;;;;;;;;5053099;28;20358;-67
2023/02/10 08:19:06;;;;;;;;;;;;;;;;;;5054300;28;19928;-67
2023/02/10 08:21:31;;;;;;;;;;;;;;;;;;5052752;28;19925;-67
2023/02/10 08:23:57;;;;;;;;;;;;;;;;;;5032846;28;19947;-70
2023/02/10 08:26:23;;;;;;;;;;;;;;;;;;5051018;28;20019;-65
2023/02/10 08:28:49;;;;;;;;;;;;;;;;;;5049303;28;20410;-67
2023/02/10 08:31:15;;;;;;;;;;;;;;;;;;5055476;28;19921;-67
2023/02/10 08:33:42;;;;;;;;;;;;;;;;;;5054200;28;20003;-67
2023/02/10 08:36:08;;;;;;;;;;;;;;;;;;5037462;28;20392;-67
2023/02/10 08:38:34;;;;;;;;;;;;;;;;;;5053291;28;20043;-67
2023/02/10 08:41:00;;;;;;;;;;;;;;;;;;5048294;28;19956;-66
2023/02/10 08:43:26;;;;;;;;;;;;;;;;;;5042277;28;19963;-66
2023/02/10 08:45:52;;;;;;;;;;;;;;;;;;5049825;28;19921;-66
2023/02/10 08:48:18;;;;;;;;;;;;;;;;;;5035782;28;19921;-66
2023/02/10 08:50:44;;;;;;;;;;;;;;;;;;5052264;28;19929;-66
2023/02/10 08:53:10;;;;;;;;;;;;;;;;;;5051835;28;20401;-67
2023/02/10 08:55:36;;;;;;;;;;;;;;;;;;5051065;28;19921;-67
2023/02/10 08:58:02;;;;;;;;;;;;;;;;;;5031298;28;19982;-67
2023/02/10 09:00:27;;;;;;;;;;;;;;;;;;5016630;28;19929;-67
2023/02/10 09:02:53;;;;;;;;;;;;;;;;;;5034401;28;19929;-67
2023/02/10 09:05:19;;;;;;;;;;;;;;;;;;5049345;28;20020;-67
2023/02/10 09:07:45;;;;;;;;;;;;;;;;;;5055387;28;20007;-68
2023/02/10 09:10:11;;;;;;;;;;;;;;;;;;5046173;28;19947;-66
2023/02/10 09:12:37;;;;;;;;;;;;;;;;;;5054962;28;19924;-66
2023/02/10 09:15:03;;;;;;;;;;;;;;;;;;5053333;28;20374;-66
2023/02/10 09:17:29;;;;;;;;;;;;;;;;;;5037299;28;19925;-66
2023/02/10 09:19:55;;;;;;;;;;;;;;;;;;5051617;28;19924;-66
2023/02/10 09:22:20;;;;;;;;;;;;;;;;;;5034329;28;20434;-66
2023/02/10 09:24:47;;;;;;;;;;;;;;;;;;5049394;28;19928;-66
2023/02/10 09:27:13;;;;;;;;;;;;;;;;;;5044332;28;19929;-67
2023/02/10 09:29:39;;;;;;;;;;;;;;;;;;5037147;28;19924;-67
2023/02/10 09:32:05;;;;;;;;;;;;;;;;;;5054294;28;19921;-67
2023/02/10 09:34:31;;;;;;;;;;;;;;;;;;5030775;28;19967;-67
2023/02/10 09:37:00;;;;;;;;;;;;;;;;;;5045861;28;20386;-65
2023/02/10 09:39:26;;;;;;;;;;;;;;;;;;5052304;28;19971;-66
2023/02/10 09:41:52;;;;;;;;;;;;;;;;;;5029175;28;19932;-66
2023/02/10 09:44:18;;;;;;;;;;;;;;;;;;5033864;28;20011;-66
2023/02/10 09:46:44;;;;;;;;;;;;;;;;;;5028240;28;19951;-67
2023/02/10 09:49:10;;;;;;;;;;;;;;;;;;5053768;28;20426;-67
2023/02/10 09:51:36;;;;;;;;;;;;;;;;;;5052982;28;20454;-67
2023/02/10 09:54:02;;;;;;;;;;;;;;;;;;5050966;28;19929;-67
2023/02/10 09:56:28;;;;;;;;;;;;;;;;;;5052006;28;19962;-67
2023/02/10 09:58:54;;;;;;;;;;;;;;;;;;5025616;28;19935;-67
2023/02/10 10:01:19;;;;;;;;;;;;;;;;;;5045564;28;19921;-67
2023/02/10 10:03:45;;;;;;;;;;;;;;;;;;5047603;28;20680;-67
2023/02/10 10:06:11;;;;;;;;;;;;;;;;;;5038050;28;19936;-68
2023/02/10 10:08:37;;;;;;;;;;;;;;;;;;5029609;28;20346;-67
2023/02/10 10:11:03;;;;;;;;;;;;;;;;;;5048435;28;19929;-67
2023/02/10 10:13:29;;;;;;;;;;;;;;;;;;5046068;28;19987;-67
2023/02/10 10:15:55;;;;;;;;;;;;;;;;;;5046843;28;19925;-67
2023/02/10 10:18:21;;;;;;;;;;;;;;;;;;5047869;28;19921;-67
2023/02/10 10:20:48;;;;;;;;;;;;;;;;;;5045750;28;19970;-67
2023/02/10 10:23:14;;;;;;;;;;;;;;;;;;5005247;28;19929;-67
2023/02/10 10:25:40;;;;;;;;;;;;;;;;;;5044183;28;20353;-67
2023/02/10 10:28:06;;;;;;;;;;;;;;;;;;5040951;28;20066;-67
2023/02/10 10:30:32;;;;;;;;;;;;;;;;;;5043882;28;19929;-67
2023/02/10 10:32:57;;;;;;;;;;;;;;;;;;5050190;28;20282;-67
2023/02/10 10:35:23;;;;;;;;;;;;;;;;;;5024759;28;19925;-67
2023/02/10 10:37:49;;;;;;;;;;;;;;;;;;5045713;28;20318;-67
2023/02/10 10:40:15;;;;;;;;;;;;;;;;;;5047692;28;19929;-67
2023/02/10 10:42:41;;;;;;;;;;;;;;;;;;5048576;28;19967;-67
2023/02/10 10:45:07;;;;;;;;;;;;;;;;;;5051575;28;19928;-67
2023/02/10 10:47:33;;;;;;;;;;;;;;;;;;5030980;28;19942;-67
2023/02/10 10:49:59;;;;;;;;;;;;;;;;;;5032999;28;19945;-67
2023/02/10 10:52:27;;;;;;;;;;;;;;;;;;5019509;28;20677;-67
2023/02/10 10:54:53;;;;;;;;;;;;;;;;;;5022248;28;19931;-67
2023/02/10 10:57:20;;;;;;;;;;;;;;;;;;5033274;28;21183;-66
2023/02/10 10:59:46;;;;;;;;;;;;;;;;;;5036758;28;20474;-67
2023/02/10 11:02:12;;;;;;;;;;;;;;;;;;5038020;28;19920;-67
2023/02/10 11:04:42;;;;;;;;;;;;;;;;;;5004339;28;20345;-67
2023/02/10 11:07:08;;;;;;;;;;;;;;;;;;5035603;28;20366;-66
2023/02/10 11:09:33;;;;;;;;;;;;;;;;;;5044323;28;19925;-67
2023/02/10 11:11:59;;;;;;;;;;;;;;;;;;5044070;28;19947;-67
2023/02/10 11:14:25;;;;;;;;;;;;;;;;;;5034967;28;20532;-67
2023/02/10 11:16:51;;;;;;;;;;;;;;;;;;5041765;28;19932;-67
2023/02/10 11:19:17;;;;;;;;;;;;;;;;;;5018064;28;19974;-67
2023/02/10 11:21:44;;;;;;;;;;;;;;;;;;5031748;28;19967;-67
2023/02/10 11:24:10;;;;;;;;;;;;;;;;;;5032012;28;20027;-67
2023/02/10 11:26:36;;;;;;;;;;;;;;;;;;5042933;28;20003;-67
2023/02/10 11:29:02;;;;;;;;;;;;;;;;;;5047760;28;20294;-67
2023/02/10 11:31:28;;;;;;;;;;;;;;;;;;5041587;28;19925;-67
2023/02/10 11:33:54;;;;;;;;;;;;;;;;;;5038916;28;19931;-67
2023/02/10 11:36:20;;;;;;;;;;;;;;;;;;5022604;28;19935;-67
2023/02/10 11:38:46;;;;;;;;;;;;;;;;;;5040660;28;19936;-67
2023/02/10 11:41:12;;;;;;;;;;;;;;;;;;5042060;28;19929;-67
2023/02/10 11:43:38;;;;;;;;;;;;;;;;;;5027947;28;20624;-67
2023/02/10 11:46:04;;;;;;;;;;;;;;;;;;5033357;28;19925;-67
2023/02/10 11:48:30;;;;;;;;;;;;;;;;;;5051635;28;19933;-66
2023/02/10 11:50:56;;;;;;;;;;;;;;;;;;5049663;28;19921;-67
2023/02/10 11:53:22;;;;;;;;;;;;;;;;;;5044858;28;20015;-67
2023/02/10 11:55:48;;;;;;;;;;;;;;;;;;5048089;28;19983;-67
2023/02/10 12:00:58;;;;;;;;;;;;;;;;;;5049757;28;19921;-67
2023/02/10 12:03:24;;;;;;;;;;;;;;;;;;5045546;28;20034;-67
2023/02/10 12:05:50;;;;;;;;;;;;;;;;;;5035006;28;19924;-67
2023/02/10 12:08:16;;;;;;;;;;;;;;;;;;5033962;28;19921;-67
2023/02/10 12:10:42;;;;;;;;;;;;;;;;;;5049762;28;19920;-67
2023/02/10 12:13:08;;;;;;;;;;;;;;;;;;5032626;28;19921;-67
2023/02/10 12:15:34;;;;;;;;;;;;;;;;;;5049487;28;19929;-67
2023/02/10 12:18:00;;;;;;;;;;;;;;;;;;5049463;28;20408;-68
2023/02/10 12:20:25;;;;;;;;;;;;;;;;;;5047453;28;20019;-65
2023/02/10 12:22:51;;;;;;;;;;;;;;;;;;5049490;28;19921;-65
2023/02/10 12:25:18;;;;;;;;;;;;;;;;;;5026131;28;19940;-67
2023/02/10 12:27:44;;;;;;;;;;;;;;;;;;5044695;28;19932;-67
2023/02/10 12:30:10;;;;;;;;;;;;;;;;;;5050013;28;19921;-66
2023/02/10 12:32:36;;;;;;;;;;;;;;;;;;5033174;28;20271;-67
2023/02/10 12:35:02;;;;;;;;;;;;;;;;;;5047994;28;19932;-67
2023/02/10 12:37:28;;;;;;;;;;;;;;;;;;5049257;28;19933;-67
2023/02/10 12:39:54;;;;;;;;;;;;;;;;;;5048165;28;20518;-67
2023/02/10 12:42:19;;;;;;;;;;;;;;;;;;5050035;28;19925;-67
2023/02/10 12:44:45;;;;;;;;;;;;;;;;;;5053991;28;19990;-67
2023/02/10 13:02:29;;;;;;;;;;;;;;;;;;5033965;28;20397;-67
2023/02/10 13:04:56;;;;;;;;;;;;;;;;;;5050087;28;19928;-67
2023/02/10 13:07:22;;;;;;;;;;;;;;;;;;5052567;28;19924;-67
2023/02/10 13:09:48;;;;;;;;;;;;;;;;;;5053314;28;20373;-68
2023/02/10 13:12:14;;;;;;;;;;;;;;;;;;5049819;28;19924;-67
2023/02/10 13:14:43;;;;;;;;;;;;;;;;;;5037163;28;20012;-67
2023/02/10 13:17:09;;;;;;;;;;;;;;;;;;5048434;28;19925;-67
2023/02/10 13:19:34;;;;;;;;;;;;;;;;;;5051045;28;20329;-67
2023/02/10 13:22:00;;;;;;;;;;;;;;;;;;5052088;28;19960;-67
2023/02/10 13:24:26;;;;;;;;;;;;;;;;;;5050957;28;19959;-67
2023/02/10 13:26:55;;;;;;;;;;;;;;;;;;5031938;28;19925;-67
2023/02/10 13:29:21;;;;;;;;;;;;;;;;;;5050520;28;19925;-67
2023/02/10 13:31:47;;;;;;;;;;;;;;;;;;5048976;28;20250;-67
2023/02/10 13:34:13;;;;;;;;;;;;;;;;;;5031817;28;19921;-67
2023/02/10 13:36:40;;;;;;;;;;;;;;;;;;5029423;28;19924;-67
2023/02/10 13:39:06;;;;;;;;;;;;;;;;;;5043939;28;19978;-67
2023/02/10 13:41:41;;;;;;;;;;;;;;;;;;5047353;28;20294;-67
2023/02/10 13:44:07;;;;;;;;;;;;;;;;;;5052522;28;19924;-67
2023/02/10 13:46:34;;;;;;;;;;;;;;;;;;5011721;28;19921;-66
2023/02/10 13:49:00;;;;;;;;;;;;;;;;;;5051690;28;19925;-66
2023/02/10 13:51:26;;;;;;;;;;;;;;;;;;5051981;28;20372;-66
2023/02/10 13:53:52;;;;;;;;;;;;;;;;;;5050433;28;19951;-66
2023/02/10 13:56:18;;;;;;;;;;;;;;;;;;5049764;28;19966;-66
2023/02/10 13:58:44;;;;;;;;;;;;;;;;;;5053004;28;20311;-66
2023/02/10 14:01:11;;;;;;;;;;;;;;;;;;5051160;28;19925;-66
2023/02/10 14:03:37;;;;;;;;;;;;;;;;;;5053248;28;19970;-68
2023/02/10 14:06:03;;;;;;;;;;;;;;;;;;5047065;28;19925;-67
2023/02/10 14:08:29;;;;;;;;;;;;;;;;;;5032425;28;19920;-67
2023/02/10 14:10:55;;;;;;;;;;;;;;;;;;5048803;28;19920;-67
2023/02/10 14:13:22;;;;;;;;;;;;;;;;;;5047671;28;20279;-67
2023/02/10 14:15:48;;;;;;;;;;;;;;;;;;5045710;28;19958;-67
2023/02/10 14:18:14;;;;;;;;;;;;;;;;;;5050634;28;19924;-67
2023/02/10 14:20:40;;;;;;;;;;;;;;;;;;5050069;28;19954;-66
2023/02/10 14:23:05;;;;;;;;;;;;;;;;;;5034770;28;19927;-67
2023/02/10 14:25:32;;;;;;;;;;;;;;;;;;5051847;28;19924;-67
2023/02/10 14:27:57;;;;;;;;;;;;;;;;;;5050503;28;19925;-67
2023/02/10 14:30:24;;;;;;;;;;;;;;;;;;5031185;28;19928;-67
2023/02/10 14:32:50;;;;;;;;;;;;;;;;;;5033670;28;19925;-67
2023/02/10 14:35:16;;;;;;;;;;;;;;;;;;5052766;28;19929;-67
2023/02/10 14:37:42;;;;;;;;;;;;;;;;;;5017012;28;19925;-67
2023/02/10 14:40:07;;;;;;;;;;;;;;;;;;5029290;28;20270;-66
2023/02/10 14:42:33;;;;;;;;;;;;;;;;;;5047595;28;21952;-67
2023/02/10 14:45:00;;;;;;;;;;;;;;;;;;5025302;28;19924;-66
2023/02/10 14:47:27;;;;;;;;;;;;;;;;;;5030530;28;19925;-67
2023/02/10 14:49:53;;;;;;;;;;;;;;;;;;5051947;28;19924;-67
2023/02/10 14:52:19;;;;;;;;;;;;;;;;;;5051517;28;19927;-67
2023/02/10 14:54:47;;;;;;;;;;;;;;;;;;5050562;28;20031;-67
2023/02/10 14:57:13;;;;;;;;;;;;;;;;;;5051973;28;19928;-67
2023/02/10 14:59:39;;;;;;;;;;;;;;;;;;5052395;28;20381;-67
2023/02/10 15:02:05;;;;;;;;;;;;;;;;;;5031859;28;19920;-67
2023/02/10 15:04:31;;;;;;;;;;;;;;;;;;5051114;28;19924;-67
2023/02/10 15:06:56;;;;;;;;;;;;;;;;;;5040082;28;20561;-67
2023/02/10 15:09:23;;;;;;;;;;;;;;;;;;5034688;28;19921;-66
2023/02/10 15:14:34;;;;;;;;;;;;;;;;;;5050893;28;19925;-67
2023/02/10 15:19:29;;;;;;;;;;;;;;;;;;5077406;28;20032;-69
2023/02/10 15:21:55;;;;;;;;;;;;;;;;;;5077201;28;20014;-70
2023/02/10 15:24:20;;;;;;;;;;;;;;;;;;5069682;28;19992;-70
2023/02/10 15:26:46;;;;;;;;;;;;;;;;;;5071840;28;19920;-69
2023/02/10 15:29:12;;;;;;;;;;;;;;;;;;5071570;28;20003;-69
2023/02/10 15:31:45;;;;;;;;;;;;;;;;;;5086616;28;19928;-70
2023/02/10 15:34:11;;;;;;;;;;;;;;;;;;5088849;28;19967;-70
2023/02/10 15:36:36;;;;;;;;;;;;;;;;;;5071034;28;19971;-70
2023/02/10 15:39:02;;;;;;;;;;;;;;;;;;5088012;28;19928;-70
2023/02/10 15:41:28;;;;;;;;;;;;;;;;;;5086554;28;19927;-70
2023/02/10 15:43:55;;;;;;;;;;;;;;;;;;5066056;28;19928;-70
2023/02/10 15:46:20;;;;;;;;;;;;;;;;;;5077027;28;19960;-70
2023/02/10 15:48:46;;;;;;;;;;;;;;;;;;5055453;28;19970;-70
2023/02/10 15:51:12;;;;;;;;;;;;;;;;;;5073571;28;19920;-71
2023/02/10 15:53:38;;;;;;;;;;;;;;;;;;5067337;28;19931;-71
2023/02/10 15:56:04;;;;;;;;;;;;;;;;;;5086362;28;20281;-71
2023/02/10 15:58:30;;;;;;;;;;;;;;;;;;5074333;28;19920;-71
2023/02/10 16:00:56;;;;;;;;;;;;;;;;;;5087873;28;19930;-71
2023/02/10 16:03:22;;;;;;;;;;;;;;;;;;5091274;28;19966;-70
2023/02/10 16:05:48;;;;;;;;;;;;;;;;;;5065481;28;20032;-70
2023/02/10 16:08:14;;;;;;;;;;;;;;;;;;5082428;28;20416;-70
2023/02/10 16:10:39;;;;;;;;;;;;;;;;;;5095270;28;19927;-70
2023/02/10 16:13:05;;;;;;;;;;;;;;;;;;5094041;28;19920;-70
2023/02/10 16:15:31;;;;;;;;;;;;;;;;;;5085162;28;19931;-70
2023/02/10 16:17:57;;;;;;;;;;;;;;;;;;5083744;28;19924;-70
2023/02/10 16:20:23;;;;;;;;;;;;;;;;;;5072056;28;19928;-71
2023/02/10 16:22:49;;;;;;;;;;;;;;;;;;5076804;28;19955;-70
2023/02/10 16:25:15;;;;;;;;;;;;;;;;;;5068035;28;19977;-70
2023/02/10 16:27:41;;;;;;;;;;;;;;;;;;5077303;28;19927;-70
2023/02/10 16:30:07;;;;;;;;;;;;;;;;;;5085230;28;19928;-70
2023/02/10 16:32:33;;;;;;;;;;;;;;;;;;5086294;28;19946;-70
2023/02/10 16:34:59;;;;;;;;;;;;;;;;;;5085810;28;19924;-70
2023/02/10 16:37:24;;;;;;;;;;;;;;;;;;5070460;28;19982;-70
2023/02/10 16:39:50;;;;;;;;;;;;;;;;;;5083842;28;20652;-71
2023/02/10 16:42:16;;;;;;;;;;;;;;;;;;5080093;28;20018;-71
2023/02/10 16:44:42;;;;;;;;;;;;;;;;;;5066454;28;19924;-71
2023/02/10 16:47:08;;;;;;;;;;;;;;;;;;5078347;28;20074;-71
2023/02/10 16:49:34;;;;;;;;;;;;;;;;;;5081828;28;19966;-71
2023/02/10 16:52:00;;;;;;;;;;;;;;;;;;5073567;28;20377;-71
2023/02/10 16:54:26;;;;;;;;;;;;;;;;;;5083027;28;19924;-70
2023/02/10 16:56:52;;;;;;;;;;;;;;;;;;5089380;28;19920;-70
2023/02/10 16:59:18;;;;;;;;;;;;;;;;;;5087553;28;19920;-70